sensor_id;sensor_type;location;lat;lon;timestamp;P1;durP1;ratioP1;P2;durP2;ratioP2
64938;SDS011;51453;47.738;7.420;2023-02-12T00:02:17;23.90;;;16.58;;
64938;SDS011;51453;47.738;7.420;2023-02-12T00:04:43;24.23;;;16.63;;
64938;SDS011;51453;47.738;7.420;2023-02-12T00:07:09;23.52;;;16.35;;
64938;SDS011;51453;47.738;7.420;2023-02-12T00:09:35;24.25;;;16.67;;
64938;SDS011;51453;47.738;7.420;2023-02-12T00:12:01;27.35;;;16.63;;
64938;SDS011;51453;47.738;7.420;2023-02-12T00:14:26;24.55;;;16.35;;
64938;SDS011;51453;47.738;7.420;2023-02-12T00:16:52;23.98;;;16.40;;
64938;SDS011;51453;47.738;7.420;2023-02-12T00:19:18;23.70;;;16.30;;
64938;SDS011;51453;47.738;7.420;2023-02-12T00:21:43;24.92;;;17.05;;
64938;SDS011;51453;47.738;7.420;2023-02-12T00:24:09;24.25;;;16.15;;
64938;SDS011;51453;47.738;7.420;2023-02-12T00:26:35;24.92;;;16.13;;
64938;SDS011;51453;47.738;7.420;2023-02-12T00:29:01;23.35;;;16.02;;
64938;SDS011;51453;47.738;7.420;2023-02-12T00:31:28;25.15;;;16.75;;
64938;SDS011;51453;47.738;7.420;2023-02-12T00:33:55;24.15;;;16.23;;
64938;SDS011;51453;47.738;7.420;2023-02-12T00:36:22;23.40;;;15.88;;
64938;SDS011;51453;47.738;7.420;2023-02-12T00:38:52;24.67;;;16.30;;
64938;SDS011;51453;47.738;7.420;2023-02-12T00:41:20;26.42;;;17.33;;
64938;SDS011;51453;47.738;7.420;2023-02-12T00:43:47;23.83;;;16.20;;
64938;SDS011;51453;47.738;7.420;2023-02-12T00:46:13;23.15;;;15.98;;
64938;SDS011;51453;47.738;7.420;2023-02-12T00:48:39;23.65;;;16.02;;
64938;SDS011;51453;47.738;7.420;2023-02-12T00:51:05;24.30;;;16.58;;
64938;SDS011;51453;47.738;7.420;2023-02-12T00:53:31;23.48;;;15.48;;
64938;SDS011;51453;47.738;7.420;2023-02-12T00:55:57;23.98;;;16.13;;
64938;SDS011;51453;47.738;7.420;2023-02-12T00:58:23;24.23;;;16.08;;
64938;SDS011;51453;47.738;7.420;2023-02-12T01:00:48;24.45;;;16.40;;
64938;SDS011;51453;47.738;7.420;2023-02-12T01:03:14;22.13;;;15.90;;
64938;SDS011;51453;47.738;7.420;2023-02-12T01:05:40;25.77;;;16.85;;
64938;SDS011;51453;47.738;7.420;2023-02-12T01:08:07;22.85;;;16.20;;
64938;SDS011;51453;47.738;7.420;2023-02-12T01:10:34;25.67;;;16.60;;
64938;SDS011;51453;47.738;7.420;2023-02-12T01:13:00;21.70;;;14.93;;
64938;SDS011;51453;47.738;7.420;2023-02-12T01:15:26;24.02;;;16.20;;
64938;SDS011;51453;47.738;7.420;2023-02-12T01:17:52;23.92;;;15.70;;
64938;SDS011;51453;47.738;7.420;2023-02-12T01:20:18;24.05;;;16.40;;
64938;SDS011;51453;47.738;7.420;2023-02-12T01:22:46;23.00;;;15.35;;
64938;SDS011;51453;47.738;7.420;2023-02-12T01:25:12;22.58;;;15.32;;
64938;SDS011;51453;47.738;7.420;2023-02-12T01:27:38;23.73;;;15.63;;
64938;SDS011;51453;47.738;7.420;2023-02-12T01:30:05;22.63;;;15.55;;
64938;SDS011;51453;47.738;7.420;2023-02-12T01:32:33;23.40;;;14.95;;
64938;SDS011;51453;47.738;7.420;2023-02-12T01:34:59;24.50;;;16.30;;
64938;SDS011;51453;47.738;7.420;2023-02-12T01:37:24;22.83;;;15.10;;
64938;SDS011;51453;47.738;7.420;2023-02-12T01:39:50;22.73;;;15.15;;
64938;SDS011;51453;47.738;7.420;2023-02-12T01:42:16;20.90;;;14.68;;
64938;SDS011;51453;47.738;7.420;2023-02-12T01:47:36;21.80;;;14.32;;
64938;SDS011;51453;47.738;7.420;2023-02-12T01:50:02;24.13;;;15.63;;
64938;SDS011;51453;47.738;7.420;2023-02-12T01:52:30;22.13;;;15.20;;
64938;SDS011;51453;47.738;7.420;2023-02-12T01:54:59;23.55;;;15.60;;
64938;SDS011;51453;47.738;7.420;2023-02-12T01:57:27;21.77;;;15.48;;
64938;SDS011;51453;47.738;7.420;2023-02-12T01:59:56;25.48;;;14.93;;
64938;SDS011;51453;47.738;7.420;2023-02-12T02:02:23;20.50;;;14.18;;
64938;SDS011;51453;47.738;7.420;2023-02-12T02:04:49;21.67;;;14.80;;
64938;SDS011;51453;47.738;7.420;2023-02-12T02:07:19;20.92;;;14.52;;
64938;SDS011;51453;47.738;7.420;2023-02-12T02:09:45;20.92;;;14.57;;
64938;SDS011;51453;47.738;7.420;2023-02-12T02:12:11;19.83;;;14.15;;
64938;SDS011;51453;47.738;7.420;2023-02-12T02:14:56;21.10;;;14.38;;
64938;SDS011;51453;47.738;7.420;2023-02-12T02:32:23;22.05;;;14.15;;
64938;SDS011;51453;47.738;7.420;2023-02-12T02:40:20;20.77;;;14.23;;
64938;SDS011;51453;47.738;7.420;2023-02-12T02:42:54;19.90;;;13.57;;
64938;SDS011;51453;47.738;7.420;2023-02-12T02:45:28;19.05;;;13.35;;
64938;SDS011;51453;47.738;7.420;2023-02-12T02:48:05;20.73;;;13.63;;
64938;SDS011;51453;47.738;7.420;2023-02-12T02:50:40;19.35;;;12.98;;
64938;SDS011;51453;47.738;7.420;2023-02-12T02:53:14;19.45;;;13.63;;
64938;SDS011;51453;47.738;7.420;2023-02-12T02:55:52;20.05;;;13.07;;
64938;SDS011;51453;47.738;7.420;2023-02-12T02:58:23;20.88;;;13.52;;
64938;SDS011;51453;47.738;7.420;2023-02-12T03:00:58;17.15;;;12.85;;
64938;SDS011;51453;47.738;7.420;2023-02-12T03:03:37;17.92;;;13.02;;
64938;SDS011;51453;47.738;7.420;2023-02-12T03:06:38;17.90;;;12.60;;
64938;SDS011;51453;47.738;7.420;2023-02-12T03:09:18;19.38;;;12.68;;
64938;SDS011;51453;47.738;7.420;2023-02-12T03:11:51;18.73;;;12.65;;
64938;SDS011;51453;47.738;7.420;2023-02-12T03:14:22;18.73;;;13.00;;
64938;SDS011;51453;47.738;7.420;2023-02-12T03:16:56;18.77;;;12.57;;
64938;SDS011;51453;47.738;7.420;2023-02-12T03:19:28;18.55;;;12.52;;
64938;SDS011;51453;47.738;7.420;2023-02-12T03:21:57;17.45;;;12.60;;
64938;SDS011;51453;47.738;7.420;2023-02-12T03:27:10;18.02;;;12.40;;
64938;SDS011;51453;47.738;7.420;2023-02-12T03:29:51;18.00;;;12.27;;
64938;SDS011;51453;47.738;7.420;2023-02-12T03:37:49;18.55;;;12.50;;
64938;SDS011;51453;47.738;7.420;2023-02-12T03:40:28;17.40;;;12.15;;
64938;SDS011;51453;47.738;7.420;2023-02-12T03:45:54;17.40;;;12.05;;
64938;SDS011;51453;47.738;7.420;2023-02-12T03:51:44;17.38;;;11.48;;
64938;SDS011;51453;47.738;7.420;2023-02-12T03:54:11;17.08;;;12.02;;
64938;SDS011;51453;47.738;7.420;2023-02-12T03:56:41;17.80;;;12.00;;
64938;SDS011;51453;47.738;7.420;2023-02-12T03:59:16;17.15;;;11.90;;
64938;SDS011;51453;47.738;7.420;2023-02-12T04:01:46;17.88;;;12.43;;
64938;SDS011;51453;47.738;7.420;2023-02-12T04:04:13;17.58;;;12.18;;
64938;SDS011;51453;47.738;7.420;2023-02-12T04:06:40;16.75;;;11.82;;
64938;SDS011;51453;47.738;7.420;2023-02-12T04:09:08;17.10;;;12.40;;
64938;SDS011;51453;47.738;7.420;2023-02-12T04:17:29;16.98;;;11.77;;
64938;SDS011;51453;47.738;7.420;2023-02-12T04:25:51;16.38;;;11.68;;
64938;SDS011;51453;47.738;7.420;2023-02-12T04:31:01;16.00;;;11.13;;
64938;SDS011;51453;47.738;7.420;2023-02-12T04:33:30;16.02;;;10.88;;
64938;SDS011;51453;47.738;7.420;2023-02-12T04:36:01;17.15;;;11.55;;
64938;SDS011;51453;47.738;7.420;2023-02-12T04:38:37;15.75;;;11.40;;
64938;SDS011;51453;47.738;7.420;2023-02-12T04:41:07;17.20;;;12.00;;
64938;SDS011;51453;47.738;7.420;2023-02-12T04:43:35;16.08;;;11.23;;
64938;SDS011;51453;47.738;7.420;2023-02-12T04:46:02;15.88;;;11.48;;
64938;SDS011;51453;47.738;7.420;2023-02-12T04:48:29;16.92;;;12.05;;
64938;SDS011;51453;47.738;7.420;2023-02-12T04:50:55;16.58;;;11.40;;
64938;SDS011;51453;47.738;7.420;2023-02-12T04:53:21;18.15;;;11.32;;
64938;SDS011;51453;47.738;7.420;2023-02-12T04:55:46;17.90;;;11.90;;
64938;SDS011;51453;47.738;7.420;2023-02-12T04:58:14;16.30;;;11.68;;
64938;SDS011;51453;47.738;7.420;2023-02-12T05:00:40;16.45;;;11.68;;
64938;SDS011;51453;47.738;7.420;2023-02-12T05:03:06;16.15;;;11.25;;
64938;SDS011;51453;47.738;7.420;2023-02-12T05:05:32;15.65;;;11.25;;
64938;SDS011;51453;47.738;7.420;2023-02-12T05:07:58;16.95;;;11.25;;
64938;SDS011;51453;47.738;7.420;2023-02-12T05:10:24;14.45;;;11.32;;
64938;SDS011;51453;47.738;7.420;2023-02-12T05:12:53;15.85;;;11.63;;
64938;SDS011;51453;47.738;7.420;2023-02-12T05:15:19;16.02;;;11.82;;
64938;SDS011;51453;47.738;7.420;2023-02-12T05:17:45;17.02;;;11.38;;
64938;SDS011;51453;47.738;7.420;2023-02-12T05:20:11;17.15;;;11.90;;
64938;SDS011;51453;47.738;7.420;2023-02-12T05:22:38;18.65;;;12.07;;
64938;SDS011;51453;47.738;7.420;2023-02-12T05:25:03;17.05;;;11.32;;
64938;SDS011;51453;47.738;7.420;2023-02-12T05:27:29;16.83;;;11.57;;
64938;SDS011;51453;47.738;7.420;2023-02-12T05:29:55;17.02;;;11.90;;
64938;SDS011;51453;47.738;7.420;2023-02-12T05:32:21;17.85;;;11.52;;
64938;SDS011;51453;47.738;7.420;2023-02-12T05:34:47;15.60;;;11.25;;
64938;SDS011;51453;47.738;7.420;2023-02-12T05:37:13;15.90;;;11.00;;
64938;SDS011;51453;47.738;7.420;2023-02-12T05:39:39;18.95;;;11.38;;
64938;SDS011;51453;47.738;7.420;2023-02-12T05:42:04;16.42;;;11.32;;
64938;SDS011;51453;47.738;7.420;2023-02-12T05:44:30;16.67;;;11.07;;
64938;SDS011;51453;47.738;7.420;2023-02-12T05:46:56;16.80;;;11.55;;
64938;SDS011;51453;47.738;7.420;2023-02-12T05:49:21;16.02;;;11.40;;
64938;SDS011;51453;47.738;7.420;2023-02-12T05:51:47;15.88;;;11.30;;
64938;SDS011;51453;47.738;7.420;2023-02-12T05:54:13;15.57;;;10.88;;
64938;SDS011;51453;47.738;7.420;2023-02-12T05:56:46;17.42;;;11.02;;
64938;SDS011;51453;47.738;7.420;2023-02-12T05:59:13;15.02;;;11.30;;
64938;SDS011;51453;47.738;7.420;2023-02-12T06:01:42;14.88;;;10.98;;
64938;SDS011;51453;47.738;7.420;2023-02-12T06:04:13;16.70;;;10.98;;
64938;SDS011;51453;47.738;7.420;2023-02-12T06:06:40;16.08;;;11.48;;
64938;SDS011;51453;47.738;7.420;2023-02-12T06:09:06;14.50;;;10.10;;
64938;SDS011;51453;47.738;7.420;2023-02-12T06:11:36;17.63;;;11.02;;
64938;SDS011;51453;47.738;7.420;2023-02-12T06:14:06;15.32;;;10.75;;
64938;SDS011;51453;47.738;7.420;2023-02-12T06:18:59;15.75;;;11.25;;
64938;SDS011;51453;47.738;7.420;2023-02-12T06:21:27;13.60;;;9.98;;
64938;SDS011;51453;47.738;7.420;2023-02-12T06:23:53;15.70;;;11.05;;
64938;SDS011;51453;47.738;7.420;2023-02-12T06:26:20;16.27;;;10.60;;
64938;SDS011;51453;47.738;7.420;2023-02-12T06:28:46;15.75;;;10.80;;
64938;SDS011;51453;47.738;7.420;2023-02-12T06:31:23;14.77;;;10.30;;
64938;SDS011;51453;47.738;7.420;2023-02-12T06:33:51;15.20;;;10.85;;
64938;SDS011;51453;47.738;7.420;2023-02-12T06:36:17;14.88;;;10.50;;
64938;SDS011;51453;47.738;7.420;2023-02-12T06:38:43;14.98;;;10.48;;
64938;SDS011;51453;47.738;7.420;2023-02-12T06:41:09;14.00;;;10.00;;
64938;SDS011;51453;47.738;7.420;2023-02-12T06:43:35;14.25;;;10.20;;
64938;SDS011;51453;47.738;7.420;2023-02-12T06:46:01;14.52;;;10.40;;
64938;SDS011;51453;47.738;7.420;2023-02-12T06:48:28;15.43;;;10.52;;
64938;SDS011;51453;47.738;7.420;2023-02-12T06:50:54;16.92;;;10.80;;
64938;SDS011;51453;47.738;7.420;2023-02-12T06:53:20;13.70;;;10.35;;
64938;SDS011;51453;47.738;7.420;2023-02-12T06:55:46;15.32;;;10.38;;
64938;SDS011;51453;47.738;7.420;2023-02-12T06:58:11;14.02;;;10.23;;
64938;SDS011;51453;47.738;7.420;2023-02-12T07:00:37;15.10;;;10.20;;
64938;SDS011;51453;47.738;7.420;2023-02-12T07:03:02;13.35;;;10.45;;
64938;SDS011;51453;47.738;7.420;2023-02-12T07:05:28;13.90;;;10.02;;
64938;SDS011;51453;47.738;7.420;2023-02-12T07:07:54;16.45;;;10.68;;
64938;SDS011;51453;47.738;7.420;2023-02-12T07:10:19;13.55;;;10.10;;
64938;SDS011;51453;47.738;7.420;2023-02-12T07:12:45;14.82;;;10.48;;
64938;SDS011;51453;47.738;7.420;2023-02-12T07:15:11;13.82;;;10.13;;
64938;SDS011;51453;47.738;7.420;2023-02-12T07:17:37;14.63;;;10.18;;
64938;SDS011;51453;47.738;7.420;2023-02-12T07:20:03;15.43;;;10.38;;
64938;SDS011;51453;47.738;7.420;2023-02-12T07:22:29;14.45;;;10.38;;
64938;SDS011;51453;47.738;7.420;2023-02-12T07:24:55;14.65;;;10.02;;
64938;SDS011;51453;47.738;7.420;2023-02-12T07:27:21;15.82;;;10.30;;
64938;SDS011;51453;47.738;7.420;2023-02-12T07:29:46;13.30;;;10.30;;
64938;SDS011;51453;47.738;7.420;2023-02-12T07:32:12;14.48;;;10.20;;
64938;SDS011;51453;47.738;7.420;2023-02-12T07:34:38;13.77;;;10.18;;
64938;SDS011;51453;47.738;7.420;2023-02-12T07:37:03;15.80;;;10.13;;
64938;SDS011;51453;47.738;7.420;2023-02-12T07:39:30;14.80;;;10.88;;
64938;SDS011;51453;47.738;7.420;2023-02-12T07:41:56;15.07;;;10.23;;
64938;SDS011;51453;47.738;7.420;2023-02-12T07:44:22;12.95;;;9.82;;
64938;SDS011;51453;47.738;7.420;2023-02-12T07:46:48;15.82;;;10.23;;
64938;SDS011;51453;47.738;7.420;2023-02-12T07:49:17;15.10;;;10.55;;
64938;SDS011;51453;47.738;7.420;2023-02-12T07:51:45;14.70;;;10.10;;
64938;SDS011;51453;47.738;7.420;2023-02-12T07:54:11;16.15;;;10.90;;
64938;SDS011;51453;47.738;7.420;2023-02-12T07:56:38;13.95;;;10.05;;
64938;SDS011;51453;47.738;7.420;2023-02-12T07:59:06;15.18;;;10.50;;
64938;SDS011;51453;47.738;7.420;2023-02-12T08:01:38;16.02;;;10.43;;
64938;SDS011;51453;47.738;7.420;2023-02-12T08:04:10;13.45;;;9.77;;
64938;SDS011;51453;47.738;7.420;2023-02-12T08:06:39;14.70;;;10.65;;
64938;SDS011;51453;47.738;7.420;2023-02-12T08:09:07;15.30;;;10.40;;
64938;SDS011;51453;47.738;7.420;2023-02-12T08:11:34;14.27;;;10.48;;
64938;SDS011;51453;47.738;7.420;2023-02-12T08:14:01;15.38;;;10.98;;
64938;SDS011;51453;47.738;7.420;2023-02-12T08:16:27;14.45;;;10.45;;
64938;SDS011;51453;47.738;7.420;2023-02-12T08:18:54;14.73;;;10.10;;
64938;SDS011;51453;47.738;7.420;2023-02-12T08:21:22;14.07;;;10.25;;
64938;SDS011;51453;47.738;7.420;2023-02-12T08:23:49;13.77;;;9.93;;
64938;SDS011;51453;47.738;7.420;2023-02-12T08:26:20;15.75;;;10.52;;
64938;SDS011;51453;47.738;7.420;2023-02-12T08:28:48;18.38;;;11.10;;
64938;SDS011;51453;47.738;7.420;2023-02-12T08:31:17;16.63;;;11.07;;
64938;SDS011;51453;47.738;7.420;2023-02-12T08:33:46;16.77;;;11.40;;
64938;SDS011;51453;47.738;7.420;2023-02-12T08:36:13;16.05;;;11.10;;
64938;SDS011;51453;47.738;7.420;2023-02-12T08:38:41;15.18;;;10.52;;
64938;SDS011;51453;47.738;7.420;2023-02-12T08:41:09;16.80;;;11.48;;
64938;SDS011;51453;47.738;7.420;2023-02-12T08:43:37;15.70;;;11.52;;
64938;SDS011;51453;47.738;7.420;2023-02-12T08:46:04;17.25;;;11.77;;
64938;SDS011;51453;47.738;7.420;2023-02-12T08:51:04;17.67;;;12.18;;
64938;SDS011;51453;47.738;7.420;2023-02-12T08:53:30;17.42;;;11.75;;
64938;SDS011;51453;47.738;7.420;2023-02-12T08:55:56;16.88;;;12.07;;
64938;SDS011;51453;47.738;7.420;2023-02-12T08:58:21;17.70;;;12.10;;
64938;SDS011;51453;47.738;7.420;2023-02-12T09:00:47;18.02;;;12.25;;
64938;SDS011;51453;47.738;7.420;2023-02-12T09:03:13;17.35;;;12.07;;
64938;SDS011;51453;47.738;7.420;2023-02-12T09:05:39;18.85;;;12.15;;
64938;SDS011;51453;47.738;7.420;2023-02-12T09:08:05;17.60;;;12.00;;
64938;SDS011;51453;47.738;7.420;2023-02-12T09:10:31;18.15;;;12.18;;
64938;SDS011;51453;47.738;7.420;2023-02-12T09:12:56;17.52;;;12.23;;
64938;SDS011;51453;47.738;7.420;2023-02-12T09:15:22;16.33;;;12.07;;
64938;SDS011;51453;47.738;7.420;2023-02-12T09:17:48;18.13;;;12.27;;
64938;SDS011;51453;47.738;7.420;2023-02-12T09:20:13;20.02;;;12.63;;
64938;SDS011;51453;47.738;7.420;2023-02-12T09:22:40;17.60;;;12.05;;
64938;SDS011;51453;47.738;7.420;2023-02-12T09:25:05;17.63;;;12.25;;
64938;SDS011;51453;47.738;7.420;2023-02-12T09:27:31;18.45;;;12.15;;
64938;SDS011;51453;47.738;7.420;2023-02-12T09:29:57;16.70;;;11.75;;
64938;SDS011;51453;47.738;7.420;2023-02-12T09:32:22;17.48;;;12.32;;
64938;SDS011;51453;47.738;7.420;2023-02-12T09:34:48;18.60;;;12.95;;
64938;SDS011;51453;47.738;7.420;2023-02-12T09:37:14;18.40;;;12.07;;
64938;SDS011;51453;47.738;7.420;2023-02-12T09:39:39;17.42;;;10.90;;
64938;SDS011;51453;47.738;7.420;2023-02-12T09:44:48;18.63;;;13.02;;
64938;SDS011;51453;47.738;7.420;2023-02-12T09:47:29;120.25;;;70.60;;
64938;SDS011;51453;47.738;7.420;2023-02-12T09:52:37;94.70;;;57.83;;
64938;SDS011;51453;47.738;7.420;2023-02-12T09:55:04;98.07;;;63.05;;
64938;SDS011;51453;47.738;7.420;2023-02-12T09:57:31;96.72;;;61.17;;
64938;SDS011;51453;47.738;7.420;2023-02-12T10:02:34;87.25;;;53.92;;
64938;SDS011;51453;47.738;7.420;2023-02-12T10:05:01;89.13;;;54.40;;
64938;SDS011;51453;47.738;7.420;2023-02-12T10:25:49;70.47;;;42.35;;
64938;SDS011;51453;47.738;7.420;2023-02-12T10:28:23;63.08;;;41.70;;
64938;SDS011;51453;47.738;7.420;2023-02-12T10:30:56;63.17;;;40.25;;
64938;SDS011;51453;47.738;7.420;2023-02-12T10:33:34;62.08;;;39.42;;
64938;SDS011;51453;47.738;7.420;2023-02-12T10:39:02;60.30;;;37.80;;
64938;SDS011;51453;47.738;7.420;2023-02-12T10:41:42;57.63;;;36.10;;
64938;SDS011;51453;47.738;7.420;2023-02-12T10:44:12;54.70;;;35.88;;
64938;SDS011;51453;47.738;7.420;2023-02-12T10:46:38;52.40;;;34.30;;
64938;SDS011;51453;47.738;7.420;2023-02-12T10:49:04;47.40;;;34.10;;
64938;SDS011;51453;47.738;7.420;2023-02-12T10:51:38;53.10;;;33.17;;
64938;SDS011;51453;47.738;7.420;2023-02-12T10:59:42;47.90;;;32.25;;
64938;SDS011;51453;47.738;7.420;2023-02-12T11:02:21;51.20;;;32.63;;
64938;SDS011;51453;47.738;7.420;2023-02-12T11:04:54;47.28;;;31.88;;
64938;SDS011;51453;47.738;7.420;2023-02-12T11:07:22;45.00;;;29.58;;
64938;SDS011;51453;47.738;7.420;2023-02-12T11:09:50;42.67;;;29.77;;
64938;SDS011;51453;47.738;7.420;2023-02-12T11:14:58;41.90;;;29.02;;
64938;SDS011;51453;47.738;7.420;2023-02-12T11:17:35;41.90;;;27.92;;
64938;SDS011;51453;47.738;7.420;2023-02-12T11:22:34;40.38;;;26.65;;
64938;SDS011;51453;47.738;7.420;2023-02-12T11:25:02;40.85;;;26.38;;
64938;SDS011;51453;47.738;7.420;2023-02-12T11:27:39;38.38;;;25.88;;
64938;SDS011;51453;47.738;7.420;2023-02-12T11:32:34;38.22;;;25.75;;
64938;SDS011;51453;47.738;7.420;2023-02-12T11:37:30;37.45;;;24.35;;
64938;SDS011;51453;47.738;7.420;2023-02-12T11:40:00;35.65;;;24.50;;
64938;SDS011;51453;47.738;7.420;2023-02-12T11:42:26;33.67;;;23.75;;
64938;SDS011;51453;47.738;7.420;2023-02-12T11:44:57;34.95;;;23.65;;
64938;SDS011;51453;47.738;7.420;2023-02-12T11:47:31;36.47;;;24.08;;
64938;SDS011;51453;47.738;7.420;2023-02-12T11:52:25;35.55;;;22.90;;
64938;SDS011;51453;47.738;7.420;2023-02-12T11:54:59;33.65;;;22.35;;
64938;SDS011;51453;47.738;7.420;2023-02-12T12:00:00;30.98;;;21.52;;
64938;SDS011;51453;47.738;7.420;2023-02-12T12:02:30;28.77;;;20.77;;
64938;SDS011;51453;47.738;7.420;2023-02-12T12:05:16;29.50;;;19.75;;
64938;SDS011;51453;47.738;7.420;2023-02-12T12:07:50;30.40;;;20.08;;
64938;SDS011;51453;47.738;7.420;2023-02-12T12:10:26;28.13;;;19.73;;
64938;SDS011;51453;47.738;7.420;2023-02-12T12:13:03;27.25;;;18.67;;
64938;SDS011;51453;47.738;7.420;2023-02-12T12:15:37;27.08;;;18.08;;
64938;SDS011;51453;47.738;7.420;2023-02-12T12:18:33;26.33;;;17.65;;
64938;SDS011;51453;47.738;7.420;2023-02-12T12:26:46;24.70;;;16.83;;
64938;SDS011;51453;47.738;7.420;2023-02-12T12:32:18;20.77;;;15.30;;
64938;SDS011;51453;47.738;7.420;2023-02-12T12:34:46;19.85;;;15.25;;
64938;SDS011;51453;47.738;7.420;2023-02-12T12:48:45;19.40;;;13.77;;
64938;SDS011;51453;47.738;7.420;2023-02-12T12:57:05;17.00;;;12.57;;
64938;SDS011;51453;47.738;7.420;2023-02-12T13:08:14;17.58;;;11.68;;
64938;SDS011;51453;47.738;7.420;2023-02-12T13:10:47;13.90;;;11.15;;
64938;SDS011;51453;47.738;7.420;2023-02-12T13:26:57;13.73;;;10.30;;
64938;SDS011;51453;47.738;7.420;2023-02-12T13:32:15;12.77;;;9.75;;
64938;SDS011;51453;47.738;7.420;2023-02-12T13:35:17;12.20;;;9.50;;
64938;SDS011;51453;47.738;7.420;2023-02-12T13:37:50;12.00;;;8.82;;
64938;SDS011;51453;47.738;7.420;2023-02-12T13:40:18;12.38;;;8.98;;
64938;SDS011;51453;47.738;7.420;2023-02-12T14:05:15;10.60;;;7.90;;
64938;SDS011;51453;47.738;7.420;2023-02-12T14:08:00;10.60;;;8.15;;
64938;SDS011;51453;47.738;7.420;2023-02-12T14:13:18;9.05;;;7.18;;
64938;SDS011;51453;47.738;7.420;2023-02-12T14:15:51;10.63;;;7.15;;
64938;SDS011;51453;47.738;7.420;2023-02-12T14:23:43;9.50;;;7.07;;
64938;SDS011;51453;47.738;7.420;2023-02-12T14:26:19;8.18;;;6.57;;
64938;SDS011;51453;47.738;7.420;2023-02-12T14:28:53;9.27;;;6.78;;
64938;SDS011;51453;47.738;7.420;2023-02-12T14:33:50;9.20;;;6.53;;
64938;SDS011;51453;47.738;7.420;2023-02-12T14:36:37;8.95;;;6.70;;
64938;SDS011;51453;47.738;7.420;2023-02-12T14:46:58;8.68;;;6.30;;
64938;SDS011;51453;47.738;7.420;2023-02-12T14:52:17;7.32;;;5.93;;
64938;SDS011;51453;47.738;7.420;2023-02-12T14:54:51;7.10;;;6.00;;
64938;SDS011;51453;47.738;7.420;2023-02-12T15:02:26;7.85;;;6.00;;
64938;SDS011;51453;47.738;7.420;2023-02-12T15:04:58;7.28;;;5.90;;
64938;SDS011;51453;47.738;7.420;2023-02-12T15:07:45;7.43;;;5.68;;
64938;SDS011;51453;47.738;7.420;2023-02-12T15:10:36;8.23;;;5.95;;
64938;SDS011;51453;47.738;7.420;2023-02-12T15:13:30;7.50;;;5.68;;
64938;SDS011;51453;47.738;7.420;2023-02-12T15:16:21;7.32;;;5.72;;
64938;SDS011;51453;47.738;7.420;2023-02-12T15:19:26;6.65;;;5.45;;
64938;SDS011;51453;47.738;7.420;2023-02-12T15:22:15;7.15;;;5.55;;
64938;SDS011;51453;47.738;7.420;2023-02-12T15:24:45;6.50;;;4.90;;
64938;SDS011;51453;47.738;7.420;2023-02-12T15:27:12;5.72;;;4.80;;
64938;SDS011;51453;47.738;7.420;2023-02-12T15:29:44;5.97;;;4.70;;
64938;SDS011;51453;47.738;7.420;2023-02-12T15:32:33;6.57;;;4.93;;
64938;SDS011;51453;47.738;7.420;2023-02-12T15:35:00;8.07;;;5.60;;
64938;SDS011;51453;47.738;7.420;2023-02-12T15:37:27;6.95;;;5.22;;
64938;SDS011;51453;47.738;7.420;2023-02-12T15:39:59;6.35;;;5.30;;
64938;SDS011;51453;47.738;7.420;2023-02-12T15:42:29;6.35;;;4.95;;
64938;SDS011;51453;47.738;7.420;2023-02-12T15:47:41;6.57;;;5.30;;
64938;SDS011;51453;47.738;7.420;2023-02-12T15:50:15;7.03;;;5.00;;
64938;SDS011;51453;47.738;7.420;2023-02-12T15:52:43;6.10;;;5.30;;
64938;SDS011;51453;47.738;7.420;2023-02-12T15:55:14;7.10;;;4.88;;
64938;SDS011;51453;47.738;7.420;2023-02-12T15:57:42;5.53;;;4.70;;
64938;SDS011;51453;47.738;7.420;2023-02-12T16:00:21;6.35;;;5.38;;
64938;SDS011;51453;47.738;7.420;2023-02-12T16:02:56;6.57;;;5.18;;
64938;SDS011;51453;47.738;7.420;2023-02-12T16:05:21;5.90;;;5.05;;
64938;SDS011;51453;47.738;7.420;2023-02-12T16:07:48;6.20;;;5.20;;
64938;SDS011;51453;47.738;7.420;2023-02-12T16:10:15;9.05;;;5.40;;
64938;SDS011;51453;47.738;7.420;2023-02-12T16:12:42;5.78;;;4.68;;
64938;SDS011;51453;47.738;7.420;2023-02-12T16:15:31;6.07;;;4.80;;
64938;SDS011;51453;47.738;7.420;2023-02-12T16:17:56;6.40;;;4.95;;
64938;SDS011;51453;47.738;7.420;2023-02-12T16:20:25;7.97;;;5.38;;
64938;SDS011;51453;47.738;7.420;2023-02-12T16:22:53;5.88;;;5.10;;
64938;SDS011;51453;47.738;7.420;2023-02-12T16:25:25;6.60;;;5.18;;
64938;SDS011;51453;47.738;7.420;2023-02-12T16:28:05;7.32;;;5.20;;
64938;SDS011;51453;47.738;7.420;2023-02-12T16:30:42;5.60;;;4.65;;
64938;SDS011;51453;47.738;7.420;2023-02-12T16:33:31;7.45;;;5.55;;
64938;SDS011;51453;47.738;7.420;2023-02-12T16:36:10;6.25;;;5.30;;
64938;SDS011;51453;47.738;7.420;2023-02-12T16:38:44;6.15;;;4.90;;
64938;SDS011;51453;47.738;7.420;2023-02-12T16:41:20;5.95;;;5.10;;
64938;SDS011;51453;47.738;7.420;2023-02-12T16:48:52;6.13;;;5.10;;
64938;SDS011;51453;47.738;7.420;2023-02-12T16:51:27;5.78;;;4.95;;
64938;SDS011;51453;47.738;7.420;2023-02-12T16:53:56;7.22;;;5.05;;
64938;SDS011;51453;47.738;7.420;2023-02-12T16:56:24;7.15;;;5.15;;
64938;SDS011;51453;47.738;7.420;2023-02-12T16:58:53;6.65;;;5.10;;
64938;SDS011;51453;47.738;7.420;2023-02-12T17:01:25;7.13;;;5.68;;
64938;SDS011;51453;47.738;7.420;2023-02-12T17:03:56;5.95;;;4.97;;
64938;SDS011;51453;47.738;7.420;2023-02-12T17:06:24;6.30;;;5.10;;
64938;SDS011;51453;47.738;7.420;2023-02-12T17:08:51;6.78;;;5.40;;
64938;SDS011;51453;47.738;7.420;2023-02-12T17:11:18;8.02;;;5.53;;
64938;SDS011;51453;47.738;7.420;2023-02-12T17:13:45;8.98;;;6.07;;
64938;SDS011;51453;47.738;7.420;2023-02-12T17:16:12;9.02;;;6.90;;
64938;SDS011;51453;47.738;7.420;2023-02-12T17:18:38;10.43;;;7.20;;
64938;SDS011;51453;47.738;7.420;2023-02-12T17:21:05;10.95;;;7.70;;
64938;SDS011;51453;47.738;7.420;2023-02-12T17:23:33;12.82;;;8.30;;
64938;SDS011;51453;47.738;7.420;2023-02-12T17:25:59;12.43;;;8.60;;
64938;SDS011;51453;47.738;7.420;2023-02-12T17:28:25;12.98;;;8.65;;
64938;SDS011;51453;47.738;7.420;2023-02-12T17:30:51;14.80;;;9.50;;
64938;SDS011;51453;47.738;7.420;2023-02-12T17:33:17;14.38;;;9.25;;
64938;SDS011;51453;47.738;7.420;2023-02-12T17:35:44;12.30;;;8.75;;
64938;SDS011;51453;47.738;7.420;2023-02-12T17:38:09;12.75;;;8.82;;
64938;SDS011;51453;47.738;7.420;2023-02-12T17:40:36;11.85;;;8.75;;
64938;SDS011;51453;47.738;7.420;2023-02-12T17:43:03;13.55;;;9.05;;
64938;SDS011;51453;47.738;7.420;2023-02-12T17:45:29;13.93;;;8.70;;
64938;SDS011;51453;47.738;7.420;2023-02-12T17:47:54;13.07;;;8.65;;
64938;SDS011;51453;47.738;7.420;2023-02-12T17:50:20;11.05;;;7.82;;
64938;SDS011;51453;47.738;7.420;2023-02-12T17:52:46;12.85;;;9.35;;
64938;SDS011;51453;47.738;7.420;2023-02-12T17:55:12;11.75;;;8.48;;
64938;SDS011;51453;47.738;7.420;2023-02-12T17:57:39;12.13;;;7.95;;
64938;SDS011;51453;47.738;7.420;2023-02-12T18:00:05;13.10;;;7.90;;
64938;SDS011;51453;47.738;7.420;2023-02-12T18:02:32;11.90;;;7.72;;
64938;SDS011;51453;47.738;7.420;2023-02-12T18:04:58;11.63;;;8.20;;
64938;SDS011;51453;47.738;7.420;2023-02-12T18:07:24;10.52;;;7.75;;
64938;SDS011;51453;47.738;7.420;2023-02-12T18:09:49;12.73;;;8.05;;
64938;SDS011;51453;47.738;7.420;2023-02-12T18:12:15;12.88;;;7.80;;
64938;SDS011;51453;47.738;7.420;2023-02-12T18:14:41;10.77;;;7.70;;